sensor_id;sensor_type;location;lat;lon;timestamp;pressure;altitude;pressure_sealevel;temperature;humidity
29935;BME280;19905;53.370;-6.314;2022-11-20T00:01:47;100150.66;;;6.95;100.00
29935;BME280;19905;53.370;-6.314;2022-11-20T00:04:15;100160.66;;;6.90;100.00
29935;BME280;19905;53.370;-6.314;2022-11-20T00:06:44;100158.66;;;6.93;100.00
29935;BME280;19905;53.370;-6.314;2022-11-20T00:09:13;100159.50;;;6.94;100.00
29935;BME280;19905;53.370;-6.314;2022-11-20T00:11:43;100164.31;;;6.87;100.00
29935;BME280;19905;53.370;-6.314;2022-11-20T00:14:11;100171.38;;;6.86;100.00
29935;BME280;19905;53.370;-6.314;2022-11-20T00:16:40;100170.00;;;6.81;100.00
29935;BME280;19905;53.370;-6.314;2022-11-20T00:19:09;100173.78;;;6.77;100.00
29935;BME280;19905;53.370;-6.314;2022-11-20T00:21:38;100166.97;;;6.74;100.00
29935;BME280;19905;53.370;-6.314;2022-11-20T00:24:08;100170.25;;;6.65;100.00
29935;BME280;19905;53.370;-6.314;2022-11-20T00:26:37;100172.88;;;6.65;100.00
29935;BME280;19905;53.370;-6.314;2022-11-20T00:29:09;100178.31;;;6.62;100.00
29935;BME280;19905;53.370;-6.314;2022-11-20T00:31:38;100176.13;;;6.56;100.00
29935;BME280;19905;53.370;-6.314;2022-11-20T00:34:06;100177.28;;;6.52;100.00
29935;BME280;19905;53.370;-6.314;2022-11-20T00:36:35;100177.47;;;6.49;100.00
29935;BME280;19905;53.370;-6.314;2022-11-20T00:39:03;100187.97;;;6.49;100.00
29935;BME280;19905;53.370;-6.314;2022-11-20T00:41:32;100188.28;;;6.44;100.00
29935;BME280;19905;53.370;-6.314;2022-11-20T00:44:00;100192.88;;;6.41;100.00
29935;BME280;19905;53.370;-6.314;2022-11-20T00:46:30;100181.16;;;6.46;100.00
29935;BME280;19905;53.370;-6.314;2022-11-20T00:48:59;100181.56;;;6.40;100.00
29935;BME280;19905;53.370;-6.314;2022-11-20T00:51:28;100177.91;;;6.43;100.00
29935;BME280;19905;53.370;-6.314;2022-11-20T00:53:57;100195.81;;;6.36;100.00
29935;BME280;19905;53.370;-6.314;2022-11-20T00:56:27;100198.34;;;6.38;100.00
29935;BME280;19905;53.370;-6.314;2022-11-20T00:58:59;100196.03;;;6.33;100.00
29935;BME280;19905;53.370;-6.314;2022-11-20T01:01:30;100192.78;;;6.29;100.00
29935;BME280;19905;53.370;-6.314;2022-11-20T01:03:59;100188.88;;;6.22;100.00
29935;BME280;19905;53.370;-6.314;2022-11-20T01:06:30;100191.81;;;6.30;100.00
29935;BME280;19905;53.370;-6.314;2022-11-20T01:09:01;100192.13;;;6.26;100.00
29935;BME280;19905;53.370;-6.314;2022-11-20T01:11:32;100190.78;;;6.20;100.00
29935;BME280;19905;53.370;-6.314;2022-11-20T01:14:03;100188.34;;;6.17;100.00
29935;BME280;19905;53.370;-6.314;2022-11-20T01:16:36;100187.19;;;6.21;100.00
29935;BME280;19905;53.370;-6.314;2022-11-20T01:19:06;100191.41;;;6.24;100.00
29935;BME280;19905;53.370;-6.314;2022-11-20T01:21:37;100186.16;;;6.24;100.00
29935;BME280;19905;53.370;-6.314;2022-11-20T01:24:08;100177.53;;;6.22;100.00
29935;BME280;19905;53.370;-6.314;2022-11-20T01:26:40;100185.63;;;6.19;100.00
29935;BME280;19905;53.370;-6.314;2022-11-20T01:29:13;100179.81;;;6.14;100.00
29935;BME280;19905;53.370;-6.314;2022-11-20T01:31:44;100184.47;;;6.10;100.00
29935;BME280;19905;53.370;-6.314;2022-11-20T01:34:15;100187.81;;;6.12;100.00
29935;BME280;19905;53.370;-6.314;2022-11-20T01:36:45;100174.69;;;6.12;100.00
29935;BME280;19905;53.370;-6.314;2022-11-20T01:39:15;100185.19;;;6.12;100.00
29935;BME280;19905;53.370;-6.314;2022-11-20T01:41:45;100185.19;;;6.12;100.00
29935;BME280;19905;53.370;-6.314;2022-11-20T01:45:00;100191.25;;;6.13;100.00
29935;BME280;19905;53.370;-6.314;2022-11-20T01:47:34;100180.28;;;6.20;100.00
29935;BME280;19905;53.370;-6.314;2022-11-20T01:50:11;100187.19;;;6.21;100.00
29935;BME280;19905;53.370;-6.314;2022-11-20T01:52:47;100189.50;;;6.26;100.00
29935;BME280;19905;53.370;-6.314;2022-11-20T01:55:21;100187.19;;;6.21;100.00
29935;BME280;19905;53.370;-6.314;2022-11-20T01:57:51;100192.63;;;6.18;100.00
29935;BME280;19905;53.370;-6.314;2022-11-20T02:00:20;100193.91;;;6.25;100.00
29935;BME280;19905;53.370;-6.314;2022-11-20T02:02:56;100186.16;;;6.24;100.00
29935;BME280;19905;53.370;-6.314;2022-11-20T02:05:32;100189.69;;;6.23;100.00
29935;BME280;19905;53.370;-6.314;2022-11-20T02:08:05;100189.81;;;6.21;100.00
29935;BME280;19905;53.370;-6.314;2022-11-20T02:10:35;100181.31;;;6.18;100.00
29935;BME280;19905;53.370;-6.314;2022-11-20T02:13:04;100188.88;;;6.22;100.00
29935;BME280;19905;53.370;-6.314;2022-11-20T02:15:50;100190.34;;;6.26;100.00
29935;BME280;19905;53.370;-6.314;2022-11-20T02:18:21;100192.44;;;6.21;100.00
29935;BME280;19905;53.370;-6.314;2022-11-20T02:20:57;100200.41;;;6.20;100.00
29935;BME280;19905;53.370;-6.314;2022-11-20T02:23:32;100193.09;;;6.25;100.00
29935;BME280;19905;53.370;-6.314;2022-11-20T02:26:09;100204.06;;;6.17;100.00
29935;BME280;19905;53.370;-6.314;2022-11-20T02:28:40;100195.56;;;6.14;100.00
29935;BME280;19905;53.370;-6.314;2022-11-20T02:31:09;100187.81;;;6.12;100.00
29935;BME280;19905;53.370;-6.314;2022-11-20T02:33:38;100189.69;;;6.23;100.00
29935;BME280;19905;53.370;-6.314;2022-11-20T02:36:08;100187.09;;;6.23;100.00
29935;BME280;19905;53.370;-6.314;2022-11-20T02:38:40;100198.22;;;6.26;100.00
29935;BME280;19905;53.370;-6.314;2022-11-20T02:41:11;100208.69;;;6.26;100.00
29935;BME280;19905;53.370;-6.314;2022-11-20T02:43:39;100198.13;;;6.28;100.00
29935;BME280;19905;53.370;-6.314;2022-11-20T02:46:08;100194.13;;;6.22;100.00
29935;BME280;19905;53.370;-6.314;2022-11-20T02:48:37;100174.19;;;6.20;100.00
29935;BME280;19905;53.370;-6.314;2022-11-20T02:51:06;100174.59;;;6.14;100.00
29935;BME280;19905;53.370;-6.314;2022-11-20T02:53:34;100177.19;;;6.01;100.00
29935;BME280;19905;53.370;-6.314;2022-11-20T02:56:03;100170.00;;;5.90;100.00
29935;BME280;19905;53.370;-6.314;2022-11-20T02:58:34;100177.44;;;5.83;100.00
29935;BME280;19905;53.370;-6.314;2022-11-20T03:01:03;100184.28;;;5.72;100.00
29935;BME280;19905;53.370;-6.314;2022-11-20T03:03:33;100179.75;;;5.61;100.00
29935;BME280;19905;53.370;-6.314;2022-11-20T03:06:02;100186.22;;;5.55;100.00
29935;BME280;19905;53.370;-6.314;2022-11-20T03:08:31;100192.72;;;5.50;100.00
29935;BME280;19905;53.370;-6.314;2022-11-20T03:11:03;100185.22;;;5.44;100.00
29935;BME280;19905;53.370;-6.314;2022-11-20T03:13:35;100184.69;;;5.39;100.00
29935;BME280;19905;53.370;-6.314;2022-11-20T03:16:08;100188.34;;;5.36;100.00
29935;BME280;19905;53.370;-6.314;2022-11-20T03:18:37;100200.97;;;5.29;100.00
29935;BME280;19905;53.370;-6.314;2022-11-20T03:21:06;100187.31;;;5.24;100.00
29935;BME280;19905;53.370;-6.314;2022-11-20T03:23:36;100184.88;;;5.21;100.00
29935;BME280;19905;53.370;-6.314;2022-11-20T03:26:13;100182.56;;;5.17;100.00
29935;BME280;19905;53.370;-6.314;2022-11-20T03:28:47;100173.22;;;5.13;100.00
29935;BME280;19905;53.370;-6.314;2022-11-20T03:31:18;100157.59;;;5.11;100.00
29935;BME280;19905;53.370;-6.314;2022-11-20T03:33:47;100163.13;;;5.06;100.00
29935;BME280;19905;53.370;-6.314;2022-11-20T03:36:17;100159.69;;;5.06;100.00
29935;BME280;19905;53.370;-6.314;2022-11-20T03:38:47;100162.94;;;5.09;100.00
29935;BME280;19905;53.370;-6.314;2022-11-20T03:41:18;100156.19;;;5.20;100.00
29935;BME280;19905;53.370;-6.314;2022-11-20T03:43:51;100153.03;;;5.15;100.00
29935;BME280;19905;53.370;-6.314;2022-11-20T03:46:20;100148.16;;;5.08;100.00
29935;BME280;19905;53.370;-6.314;2022-11-20T03:48:49;100142.38;;;5.03;100.00
29935;BME280;19905;53.370;-6.314;2022-11-20T03:51:19;100146.94;;;5.14;100.00
29935;BME280;19905;53.370;-6.314;2022-11-20T03:53:51;100146.94;;;5.14;100.00
29935;BME280;19905;53.370;-6.314;2022-11-20T03:56:23;100155.53;;;5.16;100.00
29935;BME280;19905;53.370;-6.314;2022-11-20T03:58:54;100154.59;;;5.17;100.00
29935;BME280;19905;53.370;-6.314;2022-11-20T04:01:24;100151.50;;;5.25;100.00
29935;BME280;19905;53.370;-6.314;2022-11-20T04:03:54;100156.84;;;5.23;100.00
29935;BME280;19905;53.370;-6.314;2022-11-20T04:06:24;100156.56;;;5.28;100.00
29935;BME280;19905;53.370;-6.314;2022-11-20T04:08:54;100147.94;;;5.26;100.00
29935;BME280;19905;53.370;-6.314;2022-11-20T04:11:24;100144.19;;;5.30;100.00
29935;BME280;19905;53.370;-6.314;2022-11-20T04:13:56;100144.94;;;5.32;100.00
29935;BME280;19905;53.370;-6.314;2022-11-20T04:16:28;100135.97;;;5.36;100.00
29935;BME280;19905;53.370;-6.314;2022-11-20T04:18:58;100134.06;;;5.38;100.00
29935;BME280;19905;53.370;-6.314;2022-11-20T04:21:28;100137.19;;;5.30;100.00
29935;BME280;19905;53.370;-6.314;2022-11-20T04:23:57;100138.47;;;5.38;100.00
29935;BME280;19905;53.370;-6.314;2022-11-20T04:26:28;100143.91;;;5.34;100.00
29935;BME280;19905;53.370;-6.314;2022-11-20T04:29:00;100169.63;;;5.42;100.00
29935;BME280;19905;53.370;-6.314;2022-11-20T04:31:31;100155.38;;;5.46;100.00
29935;BME280;19905;53.370;-6.314;2022-11-20T04:34:01;100159.03;;;5.44;100.00
29935;BME280;19905;53.370;-6.314;2022-11-20T04:36:31;100156.13;;;5.48;100.00
29935;BME280;19905;53.370;-6.314;2022-11-20T04:39:01;100162.41;;;5.46;100.00
29935;BME280;19905;53.370;-6.314;2022-11-20T04:41:32;100162.31;;;5.47;100.00
29935;BME280;19905;53.370;-6.314;2022-11-20T04:44:04;100169.03;;;5.51;100.00
29935;BME280;19905;53.370;-6.314;2022-11-20T04:46:35;100166.94;;;5.56;100.00
29935;BME280;19905;53.370;-6.314;2022-11-20T04:49:05;100170.50;;;5.55;100.00
29935;BME280;19905;53.370;-6.314;2022-11-20T04:51:35;100173.50;;;5.64;100.00
29935;BME280;19905;53.370;-6.314;2022-11-20T04:54:04;100173.13;;;5.55;100.00
29935;BME280;19905;53.370;-6.314;2022-11-20T04:56:33;100173.03;;;5.57;100.00
29935;BME280;19905;53.370;-6.314;2022-11-20T04:59:03;100174.91;;;5.55;100.00
29935;BME280;19905;53.370;-6.314;2022-11-20T05:01:32;100173.97;;;5.56;100.00
29935;BME280;19905;53.370;-6.314;2022-11-20T05:04:00;100166.13;;;5.56;100.00
29935;BME280;19905;53.370;-6.314;2022-11-20T05:06:29;100169.69;;;5.55;100.00
29935;BME280;19905;53.370;-6.314;2022-11-20T05:08:57;100176.69;;;5.54;100.00
29935;BME280;19905;53.370;-6.314;2022-11-20T05:11:27;100182.66;;;5.56;100.00
29935;BME280;19905;53.370;-6.314;2022-11-20T05:13:58;100180.03;;;5.56;100.00
29935;BME280;19905;53.370;-6.314;2022-11-20T05:16:29;100191.38;;;5.57;100.00
29935;BME280;19905;53.370;-6.314;2022-11-20T05:18:57;100191.66;;;5.52;100.00
29935;BME280;19905;53.370;-6.314;2022-11-20T05:21:26;100189.88;;;5.53;100.00
29935;BME280;19905;53.370;-6.314;2022-11-20T05:23:54;100192.78;;;5.48;100.00
29935;BME280;19905;53.370;-6.314;2022-11-20T05:26:23;100188.97;;;5.40;100.00
29935;BME280;19905;53.370;-6.314;2022-11-20T05:28:53;100192.44;;;5.40;100.00
29935;BME280;19905;53.370;-6.314;2022-11-20T05:31:23;100198.72;;;5.38;100.00
29935;BME280;19905;53.370;-6.314;2022-11-20T05:33:56;100197.78;;;5.39;100.00
29935;BME280;19905;53.370;-6.314;2022-11-20T05:36:25;100190.84;;;5.38;100.00
29935;BME280;19905;53.370;-6.314;2022-11-20T05:38:55;100197.22;;;5.33;100.00
29935;BME280;19905;53.370;-6.314;2022-11-20T05:41:28;100184.97;;;5.34;100.00
29935;BME280;19905;53.370;-6.314;2022-11-20T05:43:58;100184.53;;;5.27;100.00
29935;BME280;19905;53.370;-6.314;2022-11-20T05:46:26;100186.31;;;5.27;100.00
29935;BME280;19905;53.370;-6.314;2022-11-20T05:48:57;100189.00;;;5.25;100.00
29935;BME280;19905;53.370;-6.314;2022-11-20T05:51:26;100192.94;;;5.18;100.00
29935;BME280;19905;53.370;-6.314;2022-11-20T05:53:56;100185.19;;;5.17;100.00
29935;BME280;19905;53.370;-6.314;2022-11-20T05:56:25;100169.41;;;5.18;100.00
29935;BME280;19905;53.370;-6.314;2022-11-20T05:58:56;100186.94;;;5.16;100.00
29935;BME280;19905;53.370;-6.314;2022-11-20T06:01:25;100174.81;;;5.15;100.00
29935;BME280;19905;53.370;-6.314;2022-11-20T06:03:58;100174.06;;;5.27;100.00
29935;BME280;19905;53.370;-6.314;2022-11-20T06:06:26;100175.91;;;5.25;100.00
29935;BME280;19905;53.370;-6.314;2022-11-20T06:08:55;100159.06;;;5.29;100.00
29935;BME280;19905;53.370;-6.314;2022-11-20T06:11:25;100157.41;;;5.28;100.00
29935;BME280;19905;53.370;-6.314;2022-11-20T06:13:54;100158.53;;;5.24;100.00
29935;BME280;19905;53.370;-6.314;2022-11-20T06:16:22;100157.50;;;5.27;100.00
29935;BME280;19905;53.370;-6.314;2022-11-20T06:18:51;100157.28;;;5.30;100.00
29935;BME280;19905;53.370;-6.314;2022-11-20T06:21:22;100142.09;;;5.22;100.00
29935;BME280;19905;53.370;-6.314;2022-11-20T06:23:52;100138.69;;;5.20;100.00
29935;BME280;19905;53.370;-6.314;2022-11-20T06:26:23;100143.53;;;5.26;100.00
29935;BME280;19905;53.370;-6.314;2022-11-20T06:28:52;100132.78;;;5.31;100.00
29935;BME280;19905;53.370;-6.314;2022-11-20T06:31:23;100132.88;;;5.29;100.00
29935;BME280;19905;53.370;-6.314;2022-11-20T06:33:53;100128.69;;;5.27;100.00
29935;BME280;19905;53.370;-6.314;2022-11-20T06:36:23;100125.13;;;5.28;100.00
29935;BME280;19905;53.370;-6.314;2022-11-20T06:38:51;100122.81;;;5.23;100.00
29935;BME280;19905;53.370;-6.314;2022-11-20T06:41:21;100129.91;;;5.21;100.00
29935;BME280;19905;53.370;-6.314;2022-11-20T06:43:50;100130.97;;;5.19;100.00
29935;BME280;19905;53.370;-6.314;2022-11-20T06:46:20;100122.56;;;5.14;100.00
29935;BME280;19905;53.370;-6.314;2022-11-20T06:48:49;100120.97;;;5.11;100.00
29935;BME280;19905;53.370;-6.314;2022-11-20T06:51:18;100129.53;;;5.13;100.00
29935;BME280;19905;53.370;-6.314;2022-11-20T06:53:50;100135.44;;;5.17;100.00
29935;BME280;19905;53.370;-6.314;2022-11-20T06:56:18;100125.78;;;5.17;100.00
29935;BME280;19905;53.370;-6.314;2022-11-20T06:58:47;100121.31;;;5.19;100.00
29935;BME280;19905;53.370;-6.314;2022-11-20T07:01:16;100126.19;;;5.11;100.00
29935;BME280;19905;53.370;-6.314;2022-11-20T07:03:45;100129.47;;;5.15;100.00
29935;BME280;19905;53.370;-6.314;2022-11-20T07:06:19;100121.16;;;5.08;100.00
29935;BME280;19905;53.370;-6.314;2022-11-20T07:08:51;100135.16;;;5.07;100.00
29935;BME280;19905;53.370;-6.314;2022-11-20T07:11:20;100128.25;;;5.06;100.00
29935;BME280;19905;53.370;-6.314;2022-11-20T07:13:49;100122.09;;;5.07;100.00
29935;BME280;19905;53.370;-6.314;2022-11-20T07:16:18;100132.38;;;5.10;100.00
29935;BME280;19905;53.370;-6.314;2022-11-20T07:18:47;100121.53;;;5.02;100.00
29935;BME280;19905;53.370;-6.314;2022-11-20T07:21:17;100128.72;;;4.98;100.00
29935;BME280;19905;53.370;-6.314;2022-11-20T07:23:46;100115.47;;;5.01;100.00
29935;BME280;19905;53.370;-6.314;2022-11-20T07:26:16;100111.72;;;5.05;100.00
29935;BME280;19905;53.370;-6.314;2022-11-20T07:28:46;100109.25;;;5.17;100.00
29935;BME280;19905;53.370;-6.314;2022-11-20T07:31:15;100105.91;;;5.15;100.00
29935;BME280;19905;53.370;-6.314;2022-11-20T07:33:48;100122.56;;;5.14;100.00
29935;BME280;19905;53.370;-6.314;2022-11-20T07:36:17;100122.34;;;5.17;100.00
29935;BME280;19905;53.370;-6.314;2022-11-20T07:38:46;100122.84;;;5.09;100.00
29935;BME280;19905;53.370;-6.314;2022-11-20T07:41:16;100130.69;;;5.09;100.00
29935;BME280;19905;53.370;-6.314;2022-11-20T07:43:45;100127.22;;;5.08;100.00
29935;BME280;19905;53.370;-6.314;2022-11-20T07:46:14;100136.47;;;5.14;100.00
29935;BME280;19905;53.370;-6.314;2022-11-20T07:48:43;100133.66;;;5.17;100.00
29935;BME280;19905;53.370;-6.314;2022-11-20T07:51:11;100124.22;;;5.15;100.00
29935;BME280;19905;53.370;-6.314;2022-11-20T07:53:40;100120.56;;;5.31;100.00
29935;BME280;19905;53.370;-6.314;2022-11-20T07:56:09;100120.63;;;5.30;100.00
29935;BME280;19905;53.370;-6.314;2022-11-20T07:58:39;100115.03;;;5.36;100.00
29935;BME280;19905;53.370;-6.314;2022-11-20T08:01:08;100104.97;;;5.43;100.00
29935;BME280;19905;53.370;-6.314;2022-11-20T08:03:37;100109.06;;;5.47;100.00
29935;BME280;19905;53.370;-6.314;2022-11-20T08:06:06;100104.56;;;5.49;100.00
29935;BME280;19905;53.370;-6.314;2022-11-20T08:08:35;100099.56;;;5.58;100.00
29935;BME280;19905;53.370;-6.314;2022-11-20T08:11:09;100108.59;;;5.67;100.00
29935;BME280;19905;53.370;-6.314;2022-11-20T08:13:56;100082.75;;;5.75;100.00
29935;BME280;19905;53.370;-6.314;2022-11-20T08:16:40;100091.97;;;5.81;100.00
29935;BME280;19905;53.370;-6.314;2022-11-20T08:19:09;100090.19;;;5.81;100.00
29935;BME280;19905;53.370;-6.314;2022-11-20T08:21:38;100085.50;;;5.86;100.00
29935;BME280;19905;53.370;-6.314;2022-11-20T08:24:09;100087.19;;;5.88;100.00
29935;BME280;19905;53.370;-6.314;2022-11-20T08:26:39;100088.00;;;5.88;100.00
29935;BME280;19905;53.370;-6.314;2022-11-20T08:29:09;100081.19;;;5.85;100.00
29935;BME280;19905;53.370;-6.314;2022-11-20T08:31:38;100081.66;;;5.92;100.00
29935;BME280;19905;53.370;-6.314;2022-11-20T08:34:07;100087.31;;;5.99;100.00
29935;BME280;19905;53.370;-6.314;2022-11-20T08:36:38;100085.22;;;6.04;100.00
29935;BME280;19905;53.370;-6.314;2022-11-20T08:39:07;100098.66;;;6.12;100.00
29935;BME280;19905;53.370;-6.314;2022-11-20T08:41:36;100113.97;;;6.31;100.00
29935;BME280;19905;53.370;-6.314;2022-11-20T08:44:07;100093.13;;;6.42;100.00
29935;BME280;19905;53.370;-6.314;2022-11-20T08:46:38;100095.50;;;6.45;100.00
29935;BME280;19905;53.370;-6.314;2022-11-20T08:49:10;100087.75;;;6.44;100.00
29935;BME280;19905;53.370;-6.314;2022-11-20T08:51:39;100085.84;;;6.46;100.00
29935;BME280;19905;53.370;-6.314;2022-11-20T08:54:08;100096.13;;;6.49;100.00
29935;BME280;19905;53.370;-6.314;2022-11-20T08:56:37;100080.59;;;6.46;100.00
29935;BME280;19905;53.370;-6.314;2022-11-20T08:59:05;100074.31;;;6.48;100.00
29935;BME280;19905;53.370;-6.314;2022-11-20T09:01:55;100096.56;;;6.43;100.00
29935;BME280;19905;53.370;-6.314;2022-11-20T09:04:24;100078.22;;;6.43;100.00
29935;BME280;19905;53.370;-6.314;2022-11-20T09:06:53;100082.50;;;6.44;100.00
29935;BME280;19905;53.370;-6.314;2022-11-20T09:09:21;100080.41;;;6.49;100.00
29935;BME280;19905;53.370;-6.314;2022-11-20T09:11:50;100075.25;;;6.47;100.00
29935;BME280;19905;53.370;-6.314;2022-11-20T09:14:19;100060.25;;;6.49;100.00
29935;BME280;19905;53.370;-6.314;2022-11-20T09:16:48;100054.91;;;6.51;100.00
29935;BME280;19905;53.370;-6.314;2022-11-20T09:19:18;100052.94;;;6.42;100.00
29935;BME280;19905;53.370;-6.314;2022-11-20T09:22:01;100032.78;;;6.42;100.00
29935;BME280;19905;53.370;-6.314;2022-11-20T09:24:30;100035.41;;;6.42;100.00
29935;BME280;19905;53.370;-6.314;2022-11-20T09:27:02;100028.44;;;6.41;100.00
29935;BME280;19905;53.370;-6.314;2022-11-20T09:29:31;100050.38;;;6.40;100.00
29935;BME280;19905;53.370;-6.314;2022-11-20T09:32:00;100022.69;;;6.49;100.00
29935;BME280;19905;53.370;-6.314;2022-11-20T09:34:30;100028.13;;;6.46;100.00
29935;BME280;19905;53.370;-6.314;2022-11-20T09:37:01;100020.25;;;6.46;100.00
29935;BME280;19905;53.370;-6.314;2022-11-20T09:39:33;100028.66;;;6.51;100.00
29935;BME280;19905;53.370;-6.314;2022-11-20T09:42:19;100008.19;;;6.56;100.00
29935;BME280;19905;53.370;-6.314;2022-11-20T09:45:09;100005.97;;;6.62;100.00
29935;BME280;19905;53.370;-6.314;2022-11-20T09:47:52;100001.84;;;6.71;100.00
29935;BME280;19905;53.370;-6.314;2022-11-20T09:50:32;100008.34;;;6.78;100.00
29935;BME280;19905;53.370;-6.314;2022-11-20T09:53:12;100017.09;;;6.90;100.00
29935;BME280;19905;53.370;-6.314;2022-11-20T09:58:16;99986.00;;;6.97;100.00
29935;BME280;19905;53.370;-6.314;2022-11-20T10:00:51;99984.59;;;7.04;100.00
29935;BME280;19905;53.370;-6.314;2022-11-20T10:03:35;100008.22;;;7.04;100.00
29935;BME280;19905;53.370;-6.314;2022-11-20T10:06:10;99978.16;;;7.08;100.00
29935;BME280;19905;53.370;-6.314;2022-11-20T10:08:44;99999.50;;;7.03;100.00
29935;BME280;19905;53.370;-6.314;2022-11-20T10:11:19;100003.94;;;7.03;100.00
29935;BME280;19905;53.370;-6.314;2022-11-20T10:13:58;100002.25;;;7.02;100.00
29935;BME280;19905;53.370;-6.314;2022-11-20T10:16:36;100014.09;;;7.07;100.00
29935;BME280;19905;53.370;-6.314;2022-11-20T10:19:20;100013.03;;;7.10;100.00
29935;BME280;19905;53.370;-6.314;2022-11-20T10:21:59;100016.50;;;7.10;100.00
29935;BME280;19905;53.370;-6.314;2022-11-20T10:24:43;100025.31;;;7.09;100.00
29935;BME280;19905;53.370;-6.314;2022-11-20T10:27:44;100001.59;;;7.11;100.00
29935;BME280;19905;53.370;-6.314;2022-11-20T10:30:16;100014.22;;;7.06;100.00
29935;BME280;19905;53.370;-6.314;2022-11-20T10:32:50;100007.38;;;7.03;100.00
29935;BME280;19905;53.370;-6.314;2022-11-20T10:35:22;100017.91;;;7.03;100.00
29935;BME280;19905;53.370;-6.314;2022-11-20T10:37:57;100010.84;;;7.04;100.00
29935;BME280;19905;53.370;-6.314;2022-11-20T10:40:32;100006.94;;;7.09;100.00
29935;BME280;19905;53.370;-6.314;2022-11-20T10:43:10;100042.56;;;7.01;100.00
29935;BME280;19905;53.370;-6.314;2022-11-20T10:45:49;100036.91;;;7.07;100.00
29935;BME280;19905;53.370;-6.314;2022-11-20T10:48:21;100037.34;;;7.25;100.00
29935;BME280;19905;53.370;-6.314;2022-11-20T10:50:59;100032.88;;;7.84;100.00
29935;BME280;19905;53.370;-6.314;2022-11-20T10:53:43;100031.78;;;8.45;100.00
29935;BME280;19905;53.370;-6.314;2022-11-20T10:56:20;100038.47;;;8.71;100.00
29935;BME280;19905;53.370;-6.314;2022-11-20T10:59:22;100037.84;;;8.90;100.00
29935;BME280;19905;53.370;-6.314;2022-11-20T11:01:54;100027.34;;;8.68;100.00
29935;BME280;19905;53.370;-6.314;2022-11-20T11:04:32;100047.28;;;8.70;100.00
29935;BME280;19905;53.370;-6.314;2022-11-20T11:07:10;100041.91;;;8.83;100.00
29935;BME280;19905;53.370;-6.314;2022-11-20T11:12:13;100047.53;;;8.89;100.00
29935;BME280;19905;53.370;-6.314;2022-11-20T11:14:43;100041.47;;;8.67;100.00
29935;BME280;19905;53.370;-6.314;2022-11-20T11:17:24;100067.34;;;8.04;100.00
29935;BME280;19905;53.370;-6.314;2022-11-20T11:20:06;100058.88;;;7.65;100.00
29935;BME280;19905;53.370;-6.314;2022-11-20T11:22:44;100083.34;;;7.30;100.00
29935;BME280;19905;53.370;-6.314;2022-11-20T11:25:26;100089.75;;;7.26;100.00
29935;BME280;19905;53.370;-6.314;2022-11-20T11:27:57;100086.50;;;7.71;100.00
29935;BME280;19905;53.370;-6.314;2022-11-20T11:30:28;100079.09;;;8.22;100.00
29935;BME280;19905;53.370;-6.314;2022-11-20T11:33:08;100068.50;;;8.46;100.00
29935;BME280;19905;53.370;-6.314;2022-11-20T11:35:46;100074.38;;;8.72;100.00
29935;BME280;19905;53.370;-6.314;2022-11-20T11:38:21;100061.19;;;8.72;100.00
29935;BME280;19905;53.370;-6.314;2022-11-20T11:40:53;100056.91;;;8.71;100.00
29935;BME280;19905;53.370;-6.314;2022-11-20T11:43:25;100066.94;;;8.77;100.00
29935;BME280;19905;53.370;-6.314;2022-11-20T11:46:30;100078.44;;;8.76;100.00
29935;BME280;19905;53.370;-6.314;2022-11-20T11:49:08;100051.84;;;8.90;100.00
29935;BME280;19905;53.370;-6.314;2022-11-20T11:51:47;100071.69;;;8.83;100.00
29935;BME280;19905;53.370;-6.314;2022-11-20T11:54:24;100087.84;;;7.87;100.00
29935;BME280;19905;53.370;-6.314;2022-11-20T11:56:59;100107.94;;;7.29;100.00
29935;BME280;19905;53.370;-6.314;2022-11-20T20:41:45;100154.97;;;5.25;100.00
29935;BME280;19905;53.370;-6.314;2022-11-20T20:44:18;100150.78;;;5.23;100.00
29935;BME280;19905;53.370;-6.314;2022-11-20T20:47:05;100150.66;;;5.24;100.00
29935;BME280;19905;53.370;-6.314;2022-11-20T20:49:40;100145.72;;;5.20;100.00
29935;BME280;19905;53.370;-6.314;2022-11-20T20:52:09;100138.69;;;5.20;100.00
29935;BME280;19905;53.370;-6.314;2022-11-20T20:54:38;100125.78;;;5.17;100.00
29935;BME280;19905;53.370;-6.314;2022-11-20T20:57:09;100133.56;;;5.19;100.00
29935;BME280;19905;53.370;-6.314;2022-11-20T20:59:39;100125.63;;;5.20;100.00
29935;BME280;19905;53.370;-6.314;2022-11-20T21:02:09;100123.94;;;5.19;100.00
29935;BME280;19905;53.370;-6.314;2022-11-20T21:04:38;100122.44;;;5.15;100.00
29935;BME280;19905;53.370;-6.314;2022-11-20T21:07:07;100119.06;;;5.13;100.00
29935;BME280;19905;53.370;-6.314;2022-11-20T21:09:38;100114.13;;;5.08;100.00
29935;BME280;19905;53.370;-6.314;2022-11-20T21:12:07;100113.41;;;5.06;100.00
29935;BME280;19905;53.370;-6.314;2022-11-20T21:14:37;100114.53;;;5.02;100.00
29935;BME280;19905;53.370;-6.314;2022-11-20T21:17:06;100104.53;;;4.95;100.00
29935;BME280;19905;53.370;-6.314;2022-11-20T21:19:41;100097.72;;;4.92;100.00
29935;BME280;19905;53.370;-6.314;2022-11-20T21:22:09;100100.53;;;4.89;100.00
29935;BME280;19905;53.370;-6.314;2022-11-20T21:24:38;100091.00;;;4.88;100.00
29935;BME280;19905;53.370;-6.314;2022-11-20T21:27:06;100084.28;;;4.84;100.00
29935;BME280;19905;53.370;-6.314;2022-11-20T21:29:35;100076.41;;;4.84;100.00
29935;BME280;19905;53.370;-6.314;2022-11-20T21:32:05;100066.91;;;4.83;100.00
29935;BME280;19905;53.370;-6.314;2022-11-20T21:34:34;100065.13;;;4.83;100.00
29935;BME280;19905;53.370;-6.314;2022-11-20T21:37:08;100052.88;;;4.84;100.00
29935;BME280;19905;53.370;-6.314;2022-11-20T21:39:36;100040.09;;;4.79;100.00
29935;BME280;19905;53.370;-6.314;2022-11-20T21:42:16;100037.56;;;4.78;100.00
29935;BME280;19905;53.370;-6.314;2022-11-20T21:44:45;100027.28;;;4.75;100.00
29935;BME280;19905;53.370;-6.314;2022-11-20T21:47:15;100021.94;;;4.76;100.00
29935;BME280;19905;53.370;-6.314;2022-11-20T21:49:44;100016.53;;;4.79;100.00
29935;BME280;19905;53.370;-6.314;2022-11-20T21:52:13;100013.63;;;4.84;100.00